createdAt,value
2022-10-01T00:00:56.200Z,46.91
2022-10-01T00:03:26.342Z,47.07
2022-10-01T00:06:01.494Z,46.89
2022-10-01T00:08:31.282Z,47.02
2022-10-01T00:11:01.731Z,47.03
2022-10-01T00:13:30.633Z,47.02
2022-10-01T00:16:00.526Z,46.83
2022-10-01T00:18:29.742Z,46.90
2022-10-01T00:20:58.230Z,46.67
2022-10-01T00:23:26.721Z,46.80
2022-10-01T00:25:55.168Z,46.84
2022-10-01T00:28:23.704Z,46.78
2022-10-01T00:30:52.211Z,46.75
2022-10-01T00:33:22.200Z,46.50
2022-10-01T00:35:50.973Z,46.47
2022-10-01T00:38:19.486Z,46.80
2022-10-01T00:40:47.943Z,46.73
2022-10-01T00:43:23.084Z,46.62
2022-10-01T00:45:51.779Z,46.46
2022-10-01T00:48:21.880Z,46.61
2022-10-01T00:50:50.325Z,46.42
2022-10-01T00:53:18.846Z,46.46
2022-10-01T00:55:51.905Z,46.79
2022-10-01T00:58:20.492Z,46.55
2022-10-01T01:00:49.116Z,46.68
2022-10-01T01:03:17.600Z,46.49
2022-10-01T01:05:47.909Z,46.60
2022-10-01T01:08:16.374Z,46.36
2022-10-01T01:10:51.495Z,46.52
2022-10-01T01:13:25.330Z,46.42
2022-10-01T01:15:57.657Z,46.46
2022-10-01T01:18:30.292Z,46.54
2022-10-01T01:21:23.106Z,46.22
2022-10-01T01:24:41.042Z,46.32
2022-10-01T01:27:24.251Z,46.36
2022-10-01T01:29:55.950Z,46.53
2022-10-01T01:32:27.513Z,46.21
2022-10-01T01:34:56.507Z,46.51
2022-10-01T01:37:27.446Z,46.44
2022-10-01T01:39:57.361Z,46.43
2022-10-01T01:42:31.268Z,46.19
2022-10-01T01:45:02.228Z,46.50
2022-10-01T01:47:33.070Z,46.26
2022-10-01T01:50:02.943Z,46.45
2022-10-01T01:52:31.598Z,46.26
2022-10-01T01:55:00.117Z,46.46
2022-10-01T01:57:28.688Z,46.48
2022-10-01T01:59:57.141Z,46.29
2022-10-01T02:02:28.134Z,46.34
2022-10-01T02:04:57.907Z,46.27
2022-10-01T02:08:15.564Z,46.35
2022-10-01T02:11:10.834Z,46.34
2022-10-01T02:13:47.432Z,46.31
2022-10-01T02:16:21.230Z,46.39
2022-10-01T02:18:56.004Z,46.37
2022-10-01T02:21:29.101Z,46.43
2022-10-01T02:23:59.858Z,46.44
2022-10-01T02:26:28.559Z,46.40
2022-10-01T02:28:59.570Z,46.21
2022-10-01T02:31:29.424Z,46.39
2022-10-01T02:34:00.049Z,46.27
2022-10-01T02:36:28.643Z,46.36
2022-10-01T02:38:57.114Z,46.22
2022-10-01T02:41:28.351Z,46.16
2022-10-01T02:43:59.026Z,46.39
2022-10-01T02:46:30.673Z,46.15
2022-10-01T02:49:01.304Z,46.08
2022-10-01T02:51:37.224Z,46.02
2022-10-01T02:54:10.390Z,46.08
2022-10-01T02:56:56.490Z,46.29
2022-10-01T02:59:24.984Z,46.34
2022-10-01T03:01:53.575Z,46.18
2022-10-01T03:04:23.373Z,46.10
2022-10-01T03:06:51.763Z,46.38
2022-10-01T03:09:20.166Z,46.33
2022-10-01T03:11:48.540Z,46.35
2022-10-01T03:14:16.945Z,46.32
2022-10-01T03:16:45.326Z,46.33
2022-10-01T03:19:13.744Z,46.15
2022-10-01T03:21:44.898Z,46.31
2022-10-01T03:24:13.266Z,46.25
2022-10-01T03:26:41.870Z,46.25
2022-10-01T03:29:11.352Z,46.10
2022-10-01T03:31:39.876Z,46.08
2022-10-01T03:34:08.351Z,46.09
2022-10-01T03:36:36.773Z,45.93
2022-10-01T03:39:06.648Z,46.25
2022-10-01T03:41:35.345Z,46.28
2022-10-01T03:44:04.268Z,46.02
2022-10-01T03:46:32.722Z,46.10
2022-10-01T03:49:01.166Z,46.11
2022-10-01T03:51:29.649Z,46.06
2022-10-01T03:53:58.491Z,45.79
2022-10-01T03:56:28.385Z,46.08
2022-10-01T03:58:56.792Z,45.72
2022-10-01T04:01:26.045Z,45.87
2022-10-01T04:03:54.519Z,45.80
2022-10-01T04:06:22.878Z,45.98
2022-10-01T04:08:51.243Z,45.86
2022-10-01T04:11:19.639Z,46.01
2022-10-01T04:13:49.512Z,45.72
2022-10-01T04:16:18.011Z,45.81
2022-10-01T04:18:46.469Z,46.04
2022-10-01T04:21:15.598Z,45.56
2022-10-01T04:23:43.967Z,45.76
2022-10-01T04:26:12.389Z,45.56
2022-10-01T04:28:40.893Z,45.62
2022-10-01T04:31:25.894Z,45.59
2022-10-01T04:33:55.075Z,45.47
2022-10-01T04:36:23.868Z,45.54
2022-10-01T04:38:55.573Z,45.49
2022-10-01T04:41:26.637Z,45.45
2022-10-01T04:43:55.077Z,45.48
2022-10-01T04:46:25.032Z,45.20
2022-10-01T04:48:53.581Z,45.36
2022-10-01T04:51:22.067Z,45.37
2022-10-01T04:53:50.659Z,45.28
2022-10-01T04:56:19.146Z,45.29
2022-10-01T04:58:48.625Z,45.33
2022-10-01T05:01:17.248Z,45.54
2022-10-01T05:03:47.471Z,45.26
2022-10-01T05:06:15.951Z,45.35
2022-10-01T05:08:44.392Z,45.37
2022-10-01T05:11:12.983Z,45.45
2022-10-01T05:13:41.801Z,45.38
2022-10-01T05:16:11.901Z,45.28
2022-10-01T05:18:40.912Z,45.28
2022-10-01T05:21:11.784Z,45.59
2022-10-01T05:23:40.294Z,45.23
2022-10-01T05:26:08.720Z,44.91
2022-10-01T05:28:37.489Z,45.25
2022-10-01T05:31:06.393Z,45.01
2022-10-01T05:33:35.252Z,45.31
2022-10-01T05:36:04.087Z,45.25
2022-10-01T05:38:36.251Z,45.07
2022-10-01T05:41:04.924Z,45.03
2022-10-01T05:43:33.581Z,45.29
2022-10-01T05:46:02.901Z,45.27
2022-10-01T05:48:36.967Z,45.10
2022-10-01T05:51:06.858Z,45.17
2022-10-01T05:53:37.811Z,45.48
2022-10-01T05:56:07.023Z,44.98
2022-10-01T05:58:35.641Z,45.28
2022-10-01T06:01:05.077Z,45.41
2022-10-01T06:03:33.474Z,45.63
2022-10-01T06:06:01.918Z,45.57
2022-10-01T06:08:30.477Z,45.71
2022-10-01T06:11:04.456Z,45.62
2022-10-01T06:13:33.226Z,45.59
2022-10-01T06:16:02.036Z,45.63
2022-10-01T06:18:30.415Z,45.84
2022-10-01T06:21:00.313Z,45.84
2022-10-01T06:23:28.773Z,45.80
2022-10-01T06:25:57.245Z,46.45
2022-10-01T06:28:27.073Z,46.15
2022-10-01T06:30:55.586Z,45.86
2022-10-01T06:33:24.064Z,46.01
2022-10-01T06:35:53.334Z,46.57
2022-10-01T06:38:23.416Z,46.29
2022-10-01T06:40:55.085Z,46.43
2022-10-01T06:43:23.555Z,46.06
2022-10-01T06:45:53.463Z,46.05
2022-10-01T06:48:22.249Z,45.84
2022-10-01T06:50:52.337Z,46.02
2022-10-01T06:53:20.800Z,45.55
2022-10-01T06:55:51.053Z,45.83
2022-10-01T06:58:21.105Z,45.18
2022-10-01T07:00:50.110Z,45.04
2022-10-01T07:03:21.313Z,45.19
2022-10-01T07:05:51.233Z,45.12
2022-10-01T07:08:19.760Z,45.32
2022-10-01T07:10:48.151Z,45.17
2022-10-01T07:13:20.429Z,44.76
2022-10-01T07:15:48.897Z,45.32
2022-10-01T07:18:17.921Z,45.13
2022-10-01T07:20:47.666Z,46.05
2022-10-01T07:23:16.512Z,45.71
2022-10-01T07:26:08.582Z,45.24
2022-10-01T07:28:39.686Z,45.65
2022-10-01T07:31:11.347Z,45.86
2022-10-01T07:33:39.865Z,46.22
2022-10-01T07:36:12.389Z,46.35
2022-10-01T07:38:41.807Z,47.06
2022-10-01T07:41:10.968Z,46.65
2022-10-01T07:43:41.571Z,46.88
2022-10-01T07:46:10.124Z,47.51
2022-10-01T07:48:38.631Z,49.46
2022-10-01T07:51:07.780Z,48.23
2022-10-01T07:53:37.541Z,46.99
2022-10-01T07:56:06.788Z,47.19
2022-10-01T07:58:35.429Z,48.23
2022-10-01T08:01:05.304Z,47.06
2022-10-01T08:03:33.799Z,48.74
2022-10-01T08:06:03.503Z,47.43
2022-10-01T08:08:32.319Z,47.54
2022-10-01T08:11:04.840Z,47.25
2022-10-01T08:13:35.050Z,46.93
2022-10-01T08:16:04.353Z,47.75
2022-10-01T08:18:32.879Z,47.76
2022-10-01T08:21:02.184Z,47.36
2022-10-01T08:23:32.573Z,47.55
2022-10-01T08:26:01.372Z,47.77
2022-10-01T08:28:31.294Z,47.56
2022-10-01T08:31:01.382Z,47.49
2022-10-01T08:33:30.163Z,47.30
2022-10-01T08:36:02.314Z,47.86
2022-10-01T08:38:30.869Z,47.88
2022-10-01T08:41:08.556Z,47.93
2022-10-01T08:43:39.606Z,48.06
2022-10-01T08:46:11.937Z,49.53
2022-10-01T08:48:50.026Z,49.01
2022-10-01T08:51:24.853Z,48.44
2022-10-01T08:53:56.420Z,47.96
2022-10-01T08:56:36.285Z,48.72
2022-10-01T08:59:11.185Z,48.64
2022-10-01T09:01:39.724Z,48.57
2022-10-01T09:04:08.338Z,48.87
2022-10-01T09:06:37.832Z,49.14
2022-10-01T09:09:23.859Z,49.24
2022-10-01T09:12:03.328Z,48.78
2022-10-01T09:15:05.673Z,48.95
2022-10-01T09:17:45.613Z,48.98
2022-10-01T09:20:21.797Z,48.75
2022-10-01T09:22:56.269Z,48.99
2022-10-01T09:25:26.064Z,48.70
2022-10-01T09:27:55.451Z,48.99
2022-10-01T09:30:26.307Z,49.31
2022-10-01T09:32:59.653Z,49.23
2022-10-01T09:35:36.846Z,49.39
2022-10-01T09:38:10.890Z,49.36
2022-10-01T09:40:45.074Z,49.26
2022-10-01T09:43:14.510Z,49.74
2022-10-01T09:45:44.813Z,49.63
2022-10-01T09:48:20.303Z,49.77
2022-10-01T09:50:56.529Z,49.77
2022-10-01T09:53:30.316Z,49.45
2022-10-01T09:56:01.772Z,49.46
2022-10-01T09:58:31.157Z,49.46
2022-10-01T10:01:01.536Z,49.54
2022-10-01T10:03:32.096Z,49.80
2022-10-01T10:06:01.928Z,49.98
2022-10-01T10:08:31.953Z,50.55
2022-10-01T10:11:01.597Z,50.22
2022-10-01T10:13:35.113Z,50.50
2022-10-01T10:16:11.103Z,51.11
2022-10-01T10:18:40.435Z,50.21
2022-10-01T10:21:14.678Z,49.92
2022-10-01T10:23:51.092Z,50.76
2022-10-01T10:26:21.905Z,50.86
2022-10-01T10:28:50.413Z,50.68
2022-10-01T10:31:21.841Z,50.68
2022-10-01T10:33:53.436Z,50.21
2022-10-01T10:36:21.843Z,50.48
2022-10-01T10:38:52.413Z,50.67
2022-10-01T10:41:26.436Z,51.11
2022-10-01T10:43:58.218Z,50.42
2022-10-01T10:46:31.599Z,50.37
2022-10-01T10:49:05.224Z,50.59
2022-10-01T10:51:49.392Z,51.53
2022-10-01T10:54:29.316Z,50.08
2022-10-01T10:57:03.512Z,50.07
2022-10-01T10:59:34.563Z,49.73
2022-10-01T11:02:06.577Z,49.82
2022-10-01T11:04:41.396Z,49.38
2022-10-01T11:07:09.845Z,50.20
2022-10-01T11:10:08.790Z,50.80
2022-10-01T11:12:49.658Z,50.75
2022-10-01T11:15:33.912Z,50.19
2022-10-01T11:18:15.171Z,49.87
2022-10-01T11:20:50.649Z,50.29
2022-10-01T11:23:37.711Z,50.07
2022-10-01T11:26:16.563Z,50.17
2022-10-01T11:28:52.489Z,50.04
2022-10-01T11:31:28.271Z,49.60
2022-10-01T11:34:10.467Z,49.18
2022-10-01T11:36:41.740Z,49.93
2022-10-01T11:39:12.321Z,50.02
2022-10-01T11:41:42.519Z,50.01
2022-10-01T11:44:15.612Z,49.97
2022-10-01T11:46:59.016Z,49.52
2022-10-01T11:49:45.590Z,50.08
2022-10-01T11:52:25.605Z,49.91
2022-10-01T11:55:22.962Z,50.43
2022-10-01T11:58:12.061Z,49.97
2022-10-01T12:00:40.536Z,49.87
2022-10-01T12:03:16.139Z,49.49
2022-10-01T12:05:46.284Z,49.43
2022-10-01T12:08:18.951Z,48.97
2022-10-01T12:10:52.269Z,49.91
2022-10-01T12:13:25.222Z,49.49
2022-10-01T12:15:57.579Z,49.41
2022-10-01T12:18:31.125Z,50.00
2022-10-01T12:21:02.452Z,49.47
2022-10-01T12:23:45.139Z,49.69
2022-10-01T12:26:19.475Z,49.42
2022-10-01T12:28:54.561Z,49.44
2022-10-01T12:31:28.650Z,50.27
2022-10-01T12:34:09.321Z,49.90
2022-10-01T12:36:47.760Z,50.12
2022-10-01T12:39:31.751Z,49.84
2022-10-01T12:42:12.101Z,49.85
2022-10-01T12:44:59.873Z,48.27
2022-10-01T12:47:38.465Z,49.76
2022-10-01T12:50:22.373Z,49.21
2022-10-01T12:53:03.308Z,50.19
2022-10-01T12:55:47.279Z,49.16
2022-10-01T12:58:22.761Z,49.32
2022-10-01T13:00:55.928Z,49.88
2022-10-01T13:03:54.149Z,49.66
2022-10-01T13:06:30.626Z,50.08
2022-10-01T13:09:07.598Z,49.78
2022-10-01T13:11:53.511Z,49.56
2022-10-01T13:14:22.676Z,49.38
2022-10-01T13:16:56.821Z,49.46
2022-10-01T13:19:28.872Z,49.21
2022-10-01T13:22:08.703Z,49.17
2022-10-01T13:24:42.650Z,49.28
2022-10-01T13:27:14.579Z,49.60
2022-10-01T13:29:50.796Z,50.01
2022-10-01T13:32:33.987Z,49.34
2022-10-01T13:35:03.833Z,49.24
2022-10-01T13:37:38.246Z,49.60
2022-10-01T13:40:26.788Z,50.31
2022-10-01T13:42:56.989Z,49.63
2022-10-01T13:45:31.564Z,49.40
2022-10-01T13:48:09.006Z,49.34
2022-10-01T13:50:37.478Z,49.68
2022-10-01T13:53:07.412Z,49.69
2022-10-01T13:55:41.923Z,49.87
2022-10-01T13:58:32.158Z,49.73
2022-10-01T14:01:01.701Z,49.96
2022-10-01T14:03:50.593Z,49.43
2022-10-01T14:06:23.865Z,49.46
2022-10-01T14:08:55.357Z,49.82
2022-10-01T14:11:44.184Z,50.44
2022-10-01T14:14:35.565Z,49.84
2022-10-01T14:17:05.990Z,49.86
2022-10-01T14:19:34.660Z,49.66
2022-10-01T14:22:16.904Z,50.02
2022-10-01T14:25:09.007Z,49.78
2022-10-01T14:27:43.008Z,49.63
2022-10-01T14:30:13.982Z,50.00
2022-10-01T14:33:12.246Z,49.53
2022-10-01T14:35:42.361Z,49.96
2022-10-01T14:38:15.872Z,50.07
2022-10-01T14:40:45.130Z,49.75
2022-10-01T14:43:19.237Z,49.35
2022-10-01T14:45:53.357Z,49.60
2022-10-01T14:48:22.987Z,49.67
2022-10-01T14:50:53.170Z,49.65
2022-10-01T14:53:23.612Z,50.19
2022-10-01T14:55:56.402Z,50.63
2022-10-01T14:58:30.976Z,50.49
2022-10-01T15:00:59.612Z,50.15
2022-10-01T15:03:28.236Z,50.46
2022-10-01T15:06:04.783Z,50.22
2022-10-01T15:08:41.351Z,50.16
2022-10-01T15:11:14.128Z,50.45
2022-10-01T15:13:45.372Z,50.95
2022-10-01T15:16:15.073Z,50.67
2022-10-01T15:18:45.920Z,50.27
2022-10-01T15:21:20.095Z,50.86
2022-10-01T15:23:49.048Z,50.24
2022-10-01T15:26:22.924Z,51.07
2022-10-01T15:29:03.652Z,50.02
2022-10-01T15:31:32.474Z,50.41
2022-10-01T15:34:02.869Z,50.41
2022-10-01T15:36:31.341Z,50.74
2022-10-01T15:39:00.721Z,50.55
2022-10-01T15:41:33.135Z,50.40
2022-10-01T15:44:04.805Z,50.61
2022-10-01T15:46:35.402Z,50.24
2022-10-01T15:49:26.063Z,50.46
2022-10-01T15:52:14.694Z,50.21
2022-10-01T15:54:44.311Z,50.49
2022-10-01T15:57:17.559Z,50.33
2022-10-01T15:59:47.750Z,50.15
2022-10-01T16:02:21.185Z,50.07
2022-10-01T16:04:51.028Z,50.48
2022-10-01T16:07:21.691Z,50.47
2022-10-01T16:09:53.761Z,50.08
2022-10-01T16:12:23.012Z,50.29
2022-10-01T16:14:59.798Z,50.39
2022-10-01T16:17:30.953Z,50.13
2022-10-01T16:20:01.228Z,50.12
2022-10-01T16:22:32.696Z,50.93
2022-10-01T16:25:03.486Z,50.00
2022-10-01T16:27:34.523Z,51.00
2022-10-01T16:30:12.353Z,51.29
2022-10-01T16:32:41.273Z,50.55
2022-10-01T16:35:20.845Z,50.15
2022-10-01T16:37:50.276Z,49.95
2022-10-01T16:40:18.982Z,50.01
2022-10-01T16:42:48.163Z,50.16
2022-10-01T16:45:19.825Z,50.21
2022-10-01T16:47:48.245Z,49.98
2022-10-01T16:50:19.811Z,51.10
2022-10-01T16:52:48.300Z,49.91
2022-10-01T16:55:22.792Z,50.03
2022-10-01T16:57:51.252Z,49.92
2022-10-01T17:00:21.956Z,50.19
2022-10-01T17:02:50.388Z,50.01
2022-10-01T17:05:22.331Z,50.20
2022-10-01T17:07:50.850Z,50.26
2022-10-01T17:10:20.226Z,50.02
2022-10-01T17:12:49.162Z,50.09
2022-10-01T17:15:19.342Z,50.00
2022-10-01T17:17:49.183Z,49.91
2022-10-01T17:20:18.960Z,49.59
2022-10-01T17:22:47.491Z,49.88
2022-10-01T17:25:16.503Z,49.51
2022-10-01T17:27:44.914Z,49.92
2022-10-01T17:30:13.516Z,49.93
2022-10-01T17:32:43.111Z,50.11
2022-10-01T17:35:13.327Z,49.97
2022-10-01T17:37:42.256Z,50.25
2022-10-01T17:40:11.624Z,50.36
2022-10-01T17:42:40.212Z,49.97
2022-10-01T17:45:10.725Z,50.33
2022-10-01T17:47:44.930Z,50.08
2022-10-01T17:50:15.200Z,50.18
2022-10-01T17:52:44.084Z,49.83
2022-10-01T17:55:13.263Z,50.30
2022-10-01T17:57:41.831Z,50.27
2022-10-01T18:00:11.512Z,50.14
2022-10-01T18:02:42.967Z,50.18
2022-10-01T18:05:12.735Z,50.25
2022-10-01T18:07:42.663Z,50.16
2022-10-01T18:10:13.341Z,49.58
2022-10-01T18:12:41.909Z,49.85
2022-10-01T18:15:10.927Z,49.53
2022-10-01T18:17:43.408Z,49.86
2022-10-01T18:20:15.100Z,49.64
2022-10-01T18:22:44.894Z,49.32
2022-10-01T18:25:15.016Z,49.53
2022-10-01T18:27:43.700Z,49.13
2022-10-01T18:30:13.250Z,49.42
2022-10-01T18:32:44.450Z,49.85
2022-10-01T18:35:26.547Z,48.79
2022-10-01T18:37:57.200Z,48.30
2022-10-01T18:40:29.041Z,48.79
2022-10-01T18:43:00.912Z,47.94
2022-10-01T18:45:46.684Z,48.71
2022-10-01T18:48:43.015Z,48.26
2022-10-01T18:51:15.968Z,48.64
2022-10-01T18:54:14.159Z,48.35
2022-10-01T18:56:44.694Z,50.93
2022-10-01T18:59:31.060Z,49.81
2022-10-01T19:02:16.630Z,49.51
2022-10-01T19:05:07.587Z,49.16
2022-10-01T19:07:47.472Z,47.59
2022-10-01T19:10:23.227Z,49.24
2022-10-01T19:12:57.951Z,49.36
2022-10-01T19:15:36.015Z,49.25
2022-10-01T19:18:20.527Z,49.12
2022-10-01T19:20:57.756Z,49.21
2022-10-01T19:24:18.670Z,48.93
2022-10-01T19:26:53.957Z,49.41
2022-10-01T19:29:38.578Z,49.13
2022-10-01T19:32:11.478Z,49.22
2022-10-01T19:34:42.699Z,49.58
2022-10-01T19:37:14.494Z,49.39
2022-10-01T19:39:43.141Z,49.33
2022-10-01T19:42:17.210Z,49.01
2022-10-01T19:44:54.366Z,49.69
2022-10-01T19:47:32.033Z,49.67
2022-10-01T19:50:06.537Z,49.34
2022-10-01T19:52:38.324Z,49.48
2022-10-01T19:55:12.870Z,49.43
2022-10-01T19:57:44.542Z,49.04
2022-10-01T20:00:17.944Z,48.93
2022-10-01T20:02:52.436Z,48.83
2022-10-01T20:05:26.015Z,48.92
2022-10-01T20:08:01.540Z,49.00
2022-10-01T20:10:34.997Z,49.06
2022-10-01T20:13:20.892Z,48.58
2022-10-01T20:15:55.368Z,48.94
2022-10-01T20:18:29.220Z,48.99
2022-10-01T20:21:12.477Z,48.92
2022-10-01T20:23:45.387Z,49.02
2022-10-01T20:26:22.592Z,49.15
2022-10-01T20:29:11.593Z,48.76
2022-10-01T20:31:43.363Z,48.93
2022-10-01T20:34:15.225Z,49.16
2022-10-01T20:36:46.957Z,49.15
2022-10-01T20:39:18.825Z,48.92
2022-10-01T20:41:49.349Z,48.58
2022-10-01T20:44:21.967Z,48.75
2022-10-01T20:46:52.079Z,49.11
2022-10-01T20:49:27.314Z,48.67
2022-10-01T20:52:00.474Z,48.85
2022-10-01T20:54:33.296Z,48.90
2022-10-01T20:57:07.020Z,49.14
2022-10-01T20:59:40.077Z,48.72
2022-10-01T21:02:24.579Z,48.48
2022-10-01T21:04:56.493Z,48.83
2022-10-01T21:07:31.617Z,48.80
2022-10-01T21:10:00.792Z,49.00
2022-10-01T21:12:32.749Z,48.78
2022-10-01T21:15:02.647Z,48.94
2022-10-01T21:17:41.546Z,48.83
2022-10-01T21:20:36.083Z,48.83
2022-10-01T21:23:18.270Z,49.08
2022-10-01T21:25:57.075Z,48.73
2022-10-01T21:28:52.607Z,48.54
2022-10-01T21:31:34.680Z,48.68
2022-10-01T21:34:04.534Z,49.23
2022-10-01T21:36:38.711Z,48.73
2022-10-01T21:39:11.703Z,49.53
2022-10-01T21:41:52.230Z,49.28
2022-10-01T21:45:10.320Z,49.18
2022-10-01T21:47:57.159Z,49.34
2022-10-01T21:50:35.246Z,49.21
2022-10-01T21:53:49.941Z,48.83
2022-10-01T21:56:31.736Z,49.23
2022-10-01T21:59:07.117Z,49.11
2022-10-01T22:01:56.575Z,48.90
2022-10-01T22:04:32.143Z,49.17
2022-10-01T22:07:05.018Z,49.05
2022-10-01T22:09:36.241Z,49.06
2022-10-01T22:12:06.242Z,49.32
2022-10-01T22:14:40.457Z,48.90
2022-10-01T22:17:13.768Z,48.72
2022-10-01T22:19:47.102Z,48.70
2022-10-01T22:22:20.943Z,48.72
2022-10-01T22:24:50.545Z,48.50
2022-10-01T22:27:22.219Z,48.32
2022-10-01T22:29:53.750Z,48.66
2022-10-01T22:32:25.000Z,48.50
2022-10-01T22:34:58.837Z,48.42
2022-10-01T22:37:30.158Z,48.24
2022-10-01T22:40:00.677Z,48.44
2022-10-01T22:42:31.836Z,48.39
2022-10-01T22:45:03.926Z,48.33
2022-10-01T22:47:45.940Z,48.50
2022-10-01T22:50:30.114Z,48.38
2022-10-01T22:53:08.953Z,48.15
2022-10-01T22:55:44.124Z,48.25
2022-10-01T22:58:25.392Z,48.15
2022-10-01T23:01:01.717Z,48.48
2022-10-01T23:03:41.203Z,48.25
2022-10-01T23:06:14.926Z,48.15
2022-10-01T23:08:46.451Z,48.24
2022-10-01T23:11:21.162Z,48.07
2022-10-01T23:13:57.043Z,48.37
2022-10-01T23:16:33.406Z,48.11
2022-10-01T23:19:16.805Z,47.96
2022-10-01T23:21:52.628Z,48.24
2022-10-01T23:24:33.034Z,48.01
2022-10-01T23:27:07.774Z,48.20
2022-10-01T23:30:02.776Z,48.02
2022-10-01T23:33:31.761Z,48.15
2022-10-01T23:36:05.132Z,47.86
2022-10-01T23:38:57.783Z,47.73
2022-10-01T23:41:30.224Z,48.16
2022-10-01T23:44:05.091Z,48.10
2022-10-01T23:46:34.035Z,47.79
2022-10-01T23:49:05.579Z,47.84
2022-10-01T23:51:37.912Z,48.03
2022-10-01T23:54:12.864Z,47.92
2022-10-01T23:56:50.684Z,47.65
2022-10-01T23:59:26.396Z,47.54
